sensor_id;sensor_type;location;lat;lon;timestamp;P1;durP1;ratioP1;P2;durP2;ratioP2
61204;SDS011;47068;55.780;37.520;2023-06-14T00:01:31;7.05;;;2.42;;
61204;SDS011;47068;55.780;37.520;2023-06-14T00:03:59;7.57;;;2.15;;
61204;SDS011;47068;55.780;37.520;2023-06-14T00:06:26;6.63;;;2.15;;
61204;SDS011;47068;55.780;37.520;2023-06-14T00:08:53;6.40;;;1.90;;
61204;SDS011;47068;55.780;37.520;2023-06-14T00:11:19;4.72;;;2.30;;
61204;SDS011;47068;55.780;37.520;2023-06-14T00:13:45;6.45;;;2.15;;
61204;SDS011;47068;55.780;37.520;2023-06-14T00:18:37;4.38;;;1.90;;
61204;SDS011;47068;55.780;37.520;2023-06-14T00:21:03;7.15;;;1.95;;
61204;SDS011;47068;55.780;37.520;2023-06-14T00:23:29;11.38;;;2.92;;
61204;SDS011;47068;55.780;37.520;2023-06-14T00:25:54;8.00;;;2.90;;
61204;SDS011;47068;55.780;37.520;2023-06-14T00:28:20;10.45;;;2.13;;
61204;SDS011;47068;55.780;37.520;2023-06-14T00:30:46;9.20;;;2.95;;
61204;SDS011;47068;55.780;37.520;2023-06-14T00:33:12;6.28;;;2.17;;
61204;SDS011;47068;55.780;37.520;2023-06-14T00:35:37;5.05;;;2.30;;
61204;SDS011;47068;55.780;37.520;2023-06-14T00:38:03;6.40;;;2.20;;
61204;SDS011;47068;55.780;37.520;2023-06-14T00:40:29;6.25;;;2.63;;
61204;SDS011;47068;55.780;37.520;2023-06-14T00:42:54;8.45;;;2.72;;
61204;SDS011;47068;55.780;37.520;2023-06-14T00:45:20;6.47;;;2.60;;
61204;SDS011;47068;55.780;37.520;2023-06-14T00:47:45;5.03;;;2.35;;
61204;SDS011;47068;55.780;37.520;2023-06-14T00:50:11;7.35;;;2.38;;
61204;SDS011;47068;55.780;37.520;2023-06-14T00:52:38;6.88;;;2.08;;
61204;SDS011;47068;55.780;37.520;2023-06-14T00:55:04;4.78;;;2.30;;
61204;SDS011;47068;55.780;37.520;2023-06-14T00:57:31;4.82;;;2.22;;
61204;SDS011;47068;55.780;37.520;2023-06-14T00:59:57;10.52;;;2.60;;
61204;SDS011;47068;55.780;37.520;2023-06-14T01:02:22;8.93;;;2.92;;
61204;SDS011;47068;55.780;37.520;2023-06-14T01:04:49;10.50;;;2.65;;
61204;SDS011;47068;55.780;37.520;2023-06-14T01:10:09;8.40;;;2.05;;
61204;SDS011;47068;55.780;37.520;2023-06-14T01:15:20;4.22;;;1.98;;
61204;SDS011;47068;55.780;37.520;2023-06-14T01:17:46;5.22;;;2.10;;
61204;SDS011;47068;55.780;37.520;2023-06-14T01:20:16;7.05;;;2.10;;
61204;SDS011;47068;55.780;37.520;2023-06-14T01:22:54;9.65;;;2.90;;
61204;SDS011;47068;55.780;37.520;2023-06-14T01:25:20;8.05;;;2.80;;
61204;SDS011;47068;55.780;37.520;2023-06-14T01:27:51;6.57;;;2.30;;
61204;SDS011;47068;55.780;37.520;2023-06-14T01:30:20;9.05;;;2.65;;
61204;SDS011;47068;55.780;37.520;2023-06-14T01:32:48;8.55;;;2.40;;
61204;SDS011;47068;55.780;37.520;2023-06-14T01:35:15;5.60;;;1.92;;
61204;SDS011;47068;55.780;37.520;2023-06-14T01:37:41;5.20;;;2.25;;
61204;SDS011;47068;55.780;37.520;2023-06-14T01:40:15;8.55;;;2.53;;
61204;SDS011;47068;55.780;37.520;2023-06-14T01:42:51;9.20;;;2.60;;
61204;SDS011;47068;55.780;37.520;2023-06-14T01:45:18;11.77;;;2.63;;
61204;SDS011;47068;55.780;37.520;2023-06-14T01:47:44;5.30;;;2.40;;
61204;SDS011;47068;55.780;37.520;2023-06-14T01:52:37;6.10;;;2.45;;
61204;SDS011;47068;55.780;37.520;2023-06-14T01:55:04;7.18;;;2.50;;
61204;SDS011;47068;55.780;37.520;2023-06-14T01:57:30;11.65;;;3.08;;
61204;SDS011;47068;55.780;37.520;2023-06-14T01:59:55;8.32;;;2.83;;
61204;SDS011;47068;55.780;37.520;2023-06-14T02:02:21;7.90;;;2.38;;
61204;SDS011;47068;55.780;37.520;2023-06-14T02:04:46;8.10;;;3.10;;
61204;SDS011;47068;55.780;37.520;2023-06-14T02:07:12;10.80;;;2.58;;
61204;SDS011;47068;55.780;37.520;2023-06-14T02:09:38;13.90;;;3.13;;
61204;SDS011;47068;55.780;37.520;2023-06-14T02:12:04;9.43;;;2.72;;
61204;SDS011;47068;55.780;37.520;2023-06-14T02:14:29;6.88;;;2.28;;
61204;SDS011;47068;55.780;37.520;2023-06-14T02:16:55;9.75;;;2.92;;
61204;SDS011;47068;55.780;37.520;2023-06-14T02:19:20;6.65;;;2.53;;
61204;SDS011;47068;55.780;37.520;2023-06-14T02:21:46;5.65;;;2.40;;
61204;SDS011;47068;55.780;37.520;2023-06-14T02:24:12;4.70;;;2.25;;
61204;SDS011;47068;55.780;37.520;2023-06-14T02:26:38;9.95;;;2.88;;
61204;SDS011;47068;55.780;37.520;2023-06-14T02:29:07;7.22;;;2.80;;
61204;SDS011;47068;55.780;37.520;2023-06-14T02:31:36;6.32;;;2.50;;
61204;SDS011;47068;55.780;37.520;2023-06-14T02:34:02;5.35;;;2.15;;
61204;SDS011;47068;55.780;37.520;2023-06-14T02:36:27;6.78;;;2.60;;
61204;SDS011;47068;55.780;37.520;2023-06-14T02:38:55;6.05;;;2.35;;
61204;SDS011;47068;55.780;37.520;2023-06-14T02:41:25;7.32;;;3.17;;
61204;SDS011;47068;55.780;37.520;2023-06-14T02:43:52;9.48;;;3.13;;
61204;SDS011;47068;55.780;37.520;2023-06-14T02:46:18;11.30;;;3.63;;
61204;SDS011;47068;55.780;37.520;2023-06-14T02:48:43;12.10;;;3.28;;
61204;SDS011;47068;55.780;37.520;2023-06-14T02:51:09;13.75;;;3.38;;
61204;SDS011;47068;55.780;37.520;2023-06-14T02:53:35;7.97;;;3.25;;
61204;SDS011;47068;55.780;37.520;2023-06-14T02:56:04;8.02;;;2.85;;
61204;SDS011;47068;55.780;37.520;2023-06-14T02:58:30;9.77;;;3.33;;
61204;SDS011;47068;55.780;37.520;2023-06-14T03:00:55;8.65;;;3.00;;
61204;SDS011;47068;55.780;37.520;2023-06-14T03:03:22;8.65;;;3.72;;
61204;SDS011;47068;55.780;37.520;2023-06-14T03:05:50;9.38;;;3.30;;
61204;SDS011;47068;55.780;37.520;2023-06-14T03:08:16;9.35;;;3.08;;
61204;SDS011;47068;55.780;37.520;2023-06-14T03:10:44;11.43;;;3.22;;
61204;SDS011;47068;55.780;37.520;2023-06-14T03:15:36;10.05;;;3.10;;
61204;SDS011;47068;55.780;37.520;2023-06-14T03:18:01;9.98;;;3.05;;
61204;SDS011;47068;55.780;37.520;2023-06-14T03:20:28;13.45;;;3.97;;
61204;SDS011;47068;55.780;37.520;2023-06-14T03:22:55;12.10;;;3.72;;
61204;SDS011;47068;55.780;37.520;2023-06-14T03:25:20;9.05;;;3.45;;
61204;SDS011;47068;55.780;37.520;2023-06-14T03:27:47;7.05;;;3.80;;
61204;SDS011;47068;55.780;37.520;2023-06-14T03:30:12;11.68;;;4.00;;
61204;SDS011;47068;55.780;37.520;2023-06-14T03:32:38;9.77;;;3.88;;
61204;SDS011;47068;55.780;37.520;2023-06-14T03:35:04;8.93;;;3.75;;
61204;SDS011;47068;55.780;37.520;2023-06-14T03:37:30;10.02;;;3.40;;
61204;SDS011;47068;55.780;37.520;2023-06-14T03:39:55;6.10;;;2.97;;
61204;SDS011;47068;55.780;37.520;2023-06-14T03:42:21;8.55;;;3.55;;
61204;SDS011;47068;55.780;37.520;2023-06-14T03:44:46;6.15;;;3.30;;
61204;SDS011;47068;55.780;37.520;2023-06-14T03:47:12;10.25;;;4.07;;
61204;SDS011;47068;55.780;37.520;2023-06-14T03:49:37;13.73;;;3.50;;
61204;SDS011;47068;55.780;37.520;2023-06-14T03:52:03;10.52;;;3.63;;
61204;SDS011;47068;55.780;37.520;2023-06-14T03:54:28;8.98;;;3.13;;
61204;SDS011;47068;55.780;37.520;2023-06-14T03:56:54;10.55;;;3.85;;
61204;SDS011;47068;55.780;37.520;2023-06-14T03:59:22;8.80;;;3.65;;
61204;SDS011;47068;55.780;37.520;2023-06-14T04:01:47;9.10;;;3.30;;
61204;SDS011;47068;55.780;37.520;2023-06-14T04:04:13;6.38;;;3.25;;
61204;SDS011;47068;55.780;37.520;2023-06-14T04:06:41;8.02;;;3.50;;
61204;SDS011;47068;55.780;37.520;2023-06-14T04:09:08;6.75;;;3.28;;
61204;SDS011;47068;55.780;37.520;2023-06-14T04:11:33;15.70;;;3.65;;
61204;SDS011;47068;55.780;37.520;2023-06-14T04:13:59;7.18;;;2.97;;
61204;SDS011;47068;55.780;37.520;2023-06-14T04:16:25;4.95;;;2.88;;
61204;SDS011;47068;55.780;37.520;2023-06-14T04:18:51;7.72;;;3.22;;
61204;SDS011;47068;55.780;37.520;2023-06-14T04:21:17;8.10;;;3.63;;
61204;SDS011;47068;55.780;37.520;2023-06-14T04:23:43;17.70;;;3.20;;
61204;SDS011;47068;55.780;37.520;2023-06-14T04:26:09;9.95;;;3.97;;
61204;SDS011;47068;55.780;37.520;2023-06-14T04:28:35;7.40;;;3.35;;
61204;SDS011;47068;55.780;37.520;2023-06-14T04:31:05;9.55;;;3.33;;
61204;SDS011;47068;55.780;37.520;2023-06-14T04:33:34;7.93;;;3.03;;
61204;SDS011;47068;55.780;37.520;2023-06-14T04:36:08;7.25;;;3.25;;
61204;SDS011;47068;55.780;37.520;2023-06-14T04:38:36;8.63;;;2.95;;
61204;SDS011;47068;55.780;37.520;2023-06-14T04:41:02;7.95;;;2.80;;
61204;SDS011;47068;55.780;37.520;2023-06-14T04:43:28;7.28;;;3.33;;
61204;SDS011;47068;55.780;37.520;2023-06-14T04:48:21;9.95;;;2.90;;
61204;SDS011;47068;55.780;37.520;2023-06-14T04:50:47;9.95;;;4.03;;
61204;SDS011;47068;55.780;37.520;2023-06-14T04:55:38;6.63;;;2.28;;
61204;SDS011;47068;55.780;37.520;2023-06-14T04:58:04;5.93;;;2.60;;
61204;SDS011;47068;55.780;37.520;2023-06-14T05:02:55;5.53;;;2.50;;
61204;SDS011;47068;55.780;37.520;2023-06-14T05:05:22;8.15;;;3.00;;
61204;SDS011;47068;55.780;37.520;2023-06-14T05:07:49;9.60;;;2.70;;
61204;SDS011;47068;55.780;37.520;2023-06-14T05:12:40;7.45;;;2.42;;
61204;SDS011;47068;55.780;37.520;2023-06-14T05:15:08;6.63;;;2.80;;
61204;SDS011;47068;55.780;37.520;2023-06-14T05:17:35;5.65;;;2.70;;
61204;SDS011;47068;55.780;37.520;2023-06-14T05:20:01;6.35;;;2.67;;
61204;SDS011;47068;55.780;37.520;2023-06-14T05:24:52;6.55;;;2.72;;
61204;SDS011;47068;55.780;37.520;2023-06-14T05:27:23;6.38;;;2.83;;
61204;SDS011;47068;55.780;37.520;2023-06-14T05:29:49;5.32;;;2.25;;
61204;SDS011;47068;55.780;37.520;2023-06-14T05:32:15;5.00;;;2.17;;
61204;SDS011;47068;55.780;37.520;2023-06-14T05:37:07;10.70;;;2.35;;
61204;SDS011;47068;55.780;37.520;2023-06-14T05:39:32;7.47;;;2.60;;
61204;SDS011;47068;55.780;37.520;2023-06-14T05:41:58;7.38;;;3.05;;
61204;SDS011;47068;55.780;37.520;2023-06-14T05:44:23;10.48;;;2.92;;
61204;SDS011;47068;55.780;37.520;2023-06-14T05:46:49;5.93;;;2.38;;
61204;SDS011;47068;55.780;37.520;2023-06-14T05:49:15;6.60;;;2.30;;
61204;SDS011;47068;55.780;37.520;2023-06-14T05:51:40;5.10;;;2.45;;
61204;SDS011;47068;55.780;37.520;2023-06-14T05:54:06;10.88;;;2.60;;
61204;SDS011;47068;55.780;37.520;2023-06-14T05:56:31;13.77;;;2.15;;
61204;SDS011;47068;55.780;37.520;2023-06-14T05:58:57;7.60;;;2.50;;
61204;SDS011;47068;55.780;37.520;2023-06-14T06:01:22;7.82;;;2.55;;
61204;SDS011;47068;55.780;37.520;2023-06-14T06:03:48;15.25;;;2.20;;
61204;SDS011;47068;55.780;37.520;2023-06-14T06:06:14;6.00;;;2.10;;
61204;SDS011;47068;55.780;37.520;2023-06-14T06:08:40;4.95;;;2.33;;
61204;SDS011;47068;55.780;37.520;2023-06-14T06:11:05;5.25;;;2.08;;
61204;SDS011;47068;55.780;37.520;2023-06-14T06:13:31;5.82;;;2.10;;
61204;SDS011;47068;55.780;37.520;2023-06-14T06:15:57;8.77;;;2.53;;
61204;SDS011;47068;55.780;37.520;2023-06-14T06:18:22;5.55;;;2.00;;
61204;SDS011;47068;55.780;37.520;2023-06-14T06:20:50;8.68;;;2.13;;
61204;SDS011;47068;55.780;37.520;2023-06-14T06:23:16;4.93;;;1.52;;
61204;SDS011;47068;55.780;37.520;2023-06-14T06:25:42;9.07;;;2.08;;
61204;SDS011;47068;55.780;37.520;2023-06-14T06:28:08;3.42;;;1.60;;
61204;SDS011;47068;55.780;37.520;2023-06-14T06:30:33;5.28;;;1.90;;
61204;SDS011;47068;55.780;37.520;2023-06-14T06:32:59;5.25;;;1.27;;
61204;SDS011;47068;55.780;37.520;2023-06-14T06:35:25;5.57;;;1.52;;
61204;SDS011;47068;55.780;37.520;2023-06-14T06:37:53;6.22;;;1.70;;
61204;SDS011;47068;55.780;37.520;2023-06-14T06:40:18;2.90;;;1.65;;
61204;SDS011;47068;55.780;37.520;2023-06-14T06:42:44;3.58;;;1.52;;
61204;SDS011;47068;55.780;37.520;2023-06-14T06:45:10;7.88;;;1.63;;
61204;SDS011;47068;55.780;37.520;2023-06-14T06:47:35;2.35;;;1.20;;
61204;SDS011;47068;55.780;37.520;2023-06-14T06:50:01;3.42;;;1.55;;
61204;SDS011;47068;55.780;37.520;2023-06-14T06:52:26;4.05;;;1.50;;
61204;SDS011;47068;55.780;37.520;2023-06-14T06:54:52;5.22;;;1.30;;
61204;SDS011;47068;55.780;37.520;2023-06-14T06:57:20;2.63;;;1.50;;
61204;SDS011;47068;55.780;37.520;2023-06-14T06:59:47;3.17;;;1.40;;
61204;SDS011;47068;55.780;37.520;2023-06-14T07:02:13;5.15;;;1.80;;
61204;SDS011;47068;55.780;37.520;2023-06-14T07:04:39;5.60;;;2.03;;
61204;SDS011;47068;55.780;37.520;2023-06-14T07:07:04;2.97;;;1.48;;
61204;SDS011;47068;55.780;37.520;2023-06-14T07:09:29;5.60;;;1.50;;
61204;SDS011;47068;55.780;37.520;2023-06-14T07:11:55;3.53;;;1.52;;
61204;SDS011;47068;55.780;37.520;2023-06-14T07:14:20;5.25;;;1.88;;
61204;SDS011;47068;55.780;37.520;2023-06-14T07:16:48;3.38;;;1.60;;
61204;SDS011;47068;55.780;37.520;2023-06-14T07:19:14;4.65;;;1.95;;
61204;SDS011;47068;55.780;37.520;2023-06-14T07:21:40;3.88;;;1.50;;
61204;SDS011;47068;55.780;37.520;2023-06-14T07:24:05;3.00;;;1.50;;
61204;SDS011;47068;55.780;37.520;2023-06-14T07:26:31;2.50;;;1.33;;
61204;SDS011;47068;55.780;37.520;2023-06-14T07:28:57;3.45;;;1.67;;
61204;SDS011;47068;55.780;37.520;2023-06-14T07:31:22;3.72;;;1.75;;
61204;SDS011;47068;55.780;37.520;2023-06-14T07:33:48;4.32;;;1.80;;
61204;SDS011;47068;55.780;37.520;2023-06-14T07:36:14;4.13;;;1.95;;
61204;SDS011;47068;55.780;37.520;2023-06-14T07:38:39;5.55;;;2.05;;
61204;SDS011;47068;55.780;37.520;2023-06-14T07:41:06;4.28;;;2.00;;
61204;SDS011;47068;55.780;37.520;2023-06-14T07:43:31;4.18;;;1.85;;
61204;SDS011;47068;55.780;37.520;2023-06-14T07:45:57;3.33;;;1.90;;
61204;SDS011;47068;55.780;37.520;2023-06-14T07:48:23;4.43;;;1.95;;
61204;SDS011;47068;55.780;37.520;2023-06-14T07:50:48;6.07;;;2.10;;
61204;SDS011;47068;55.780;37.520;2023-06-14T07:53:13;5.32;;;1.98;;
61204;SDS011;47068;55.780;37.520;2023-06-14T07:55:39;3.90;;;1.88;;
61204;SDS011;47068;55.780;37.520;2023-06-14T07:58:08;3.47;;;1.80;;
61204;SDS011;47068;55.780;37.520;2023-06-14T08:00:34;3.80;;;1.88;;
61204;SDS011;47068;55.780;37.520;2023-06-14T08:02:59;4.07;;;2.00;;
61204;SDS011;47068;55.780;37.520;2023-06-14T08:05:25;2.97;;;1.63;;
61204;SDS011;47068;55.780;37.520;2023-06-14T08:07:52;3.92;;;1.85;;
61204;SDS011;47068;55.780;37.520;2023-06-14T08:10:17;4.22;;;1.90;;
61204;SDS011;47068;55.780;37.520;2023-06-14T08:12:43;5.47;;;2.35;;
61204;SDS011;47068;55.780;37.520;2023-06-14T08:15:09;2.92;;;1.83;;
61204;SDS011;47068;55.780;37.520;2023-06-14T08:17:35;5.72;;;1.90;;
61204;SDS011;47068;55.780;37.520;2023-06-14T08:20:01;2.67;;;1.80;;
61204;SDS011;47068;55.780;37.520;2023-06-14T08:22:29;2.88;;;1.73;;
61204;SDS011;47068;55.780;37.520;2023-06-14T08:24:58;6.47;;;2.00;;
61204;SDS011;47068;55.780;37.520;2023-06-14T08:27:27;3.65;;;1.95;;
61204;SDS011;47068;55.780;37.520;2023-06-14T08:29:53;2.85;;;1.60;;
61204;SDS011;47068;55.780;37.520;2023-06-14T08:32:18;3.20;;;1.77;;
61204;SDS011;47068;55.780;37.520;2023-06-14T08:34:44;3.40;;;1.75;;
61204;SDS011;47068;55.780;37.520;2023-06-14T08:37:09;3.20;;;1.58;;
61204;SDS011;47068;55.780;37.520;2023-06-14T08:39:35;4.30;;;1.48;;
61204;SDS011;47068;55.780;37.520;2023-06-14T08:42:01;3.75;;;1.42;;
61204;SDS011;47068;55.780;37.520;2023-06-14T08:44:28;16.05;;;2.00;;
61204;SDS011;47068;55.780;37.520;2023-06-14T08:46:58;7.82;;;1.80;;
61204;SDS011;47068;55.780;37.520;2023-06-14T08:49:31;3.60;;;1.40;;
61204;SDS011;47068;55.780;37.520;2023-06-14T08:51:58;5.10;;;2.17;;
61204;SDS011;47068;55.780;37.520;2023-06-14T08:54:29;4.10;;;1.67;;
61204;SDS011;47068;55.780;37.520;2023-06-14T08:56:59;5.13;;;1.80;;
61204;SDS011;47068;55.780;37.520;2023-06-14T08:59:28;6.05;;;1.67;;
61204;SDS011;47068;55.780;37.520;2023-06-14T09:01:58;7.35;;;3.63;;
61204;SDS011;47068;55.780;37.520;2023-06-14T09:04:28;4.60;;;1.80;;
61204;SDS011;47068;55.780;37.520;2023-06-14T09:06:55;3.58;;;1.70;;
61204;SDS011;47068;55.780;37.520;2023-06-14T09:09:21;7.07;;;1.70;;
61204;SDS011;47068;55.780;37.520;2023-06-14T09:11:50;4.38;;;1.55;;
61204;SDS011;47068;55.780;37.520;2023-06-14T09:14:17;6.22;;;2.00;;
61204;SDS011;47068;55.780;37.520;2023-06-14T09:16:44;3.83;;;1.90;;
61204;SDS011;47068;55.780;37.520;2023-06-14T09:19:13;4.50;;;2.13;;
61204;SDS011;47068;55.780;37.520;2023-06-14T09:24:13;4.47;;;1.80;;
61204;SDS011;47068;55.780;37.520;2023-06-14T09:26:39;4.43;;;1.80;;
61204;SDS011;47068;55.780;37.520;2023-06-14T09:29:05;3.78;;;1.77;;
61204;SDS011;47068;55.780;37.520;2023-06-14T09:31:31;4.32;;;1.75;;
61204;SDS011;47068;55.780;37.520;2023-06-14T09:33:57;4.53;;;1.83;;
61204;SDS011;47068;55.780;37.520;2023-06-14T09:36:26;4.20;;;1.60;;
61204;SDS011;47068;55.780;37.520;2023-06-14T09:38:55;3.72;;;1.70;;
61204;SDS011;47068;55.780;37.520;2023-06-14T09:44:16;4.13;;;1.70;;
61204;SDS011;47068;55.780;37.520;2023-06-14T09:46:43;6.32;;;1.90;;
61204;SDS011;47068;55.780;37.520;2023-06-14T09:49:09;5.18;;;2.30;;
61204;SDS011;47068;55.780;37.520;2023-06-14T09:51:34;7.53;;;1.70;;
61204;SDS011;47068;55.780;37.520;2023-06-14T09:54:07;4.90;;;1.67;;
61204;SDS011;47068;55.780;37.520;2023-06-14T09:56:40;4.80;;;1.80;;
61204;SDS011;47068;55.780;37.520;2023-06-14T09:59:09;4.03;;;2.03;;
61204;SDS011;47068;55.780;37.520;2023-06-14T10:01:35;3.20;;;1.70;;
61204;SDS011;47068;55.780;37.520;2023-06-14T10:04:07;6.03;;;1.80;;
61204;SDS011;47068;55.780;37.520;2023-06-14T10:06:42;5.55;;;1.95;;
61204;SDS011;47068;55.780;37.520;2023-06-14T10:09:10;3.10;;;1.50;;
61204;SDS011;47068;55.780;37.520;2023-06-14T10:11:37;4.70;;;1.73;;
61204;SDS011;47068;55.780;37.520;2023-06-14T10:14:08;4.75;;;1.75;;
61204;SDS011;47068;55.780;37.520;2023-06-14T10:16:47;3.42;;;1.75;;
61204;SDS011;47068;55.780;37.520;2023-06-14T10:22:32;3.22;;;1.67;;
61204;SDS011;47068;55.780;37.520;2023-06-14T10:25:03;5.15;;;2.03;;
61204;SDS011;47068;55.780;37.520;2023-06-14T10:27:37;5.95;;;1.95;;
61204;SDS011;47068;55.780;37.520;2023-06-14T10:30:03;3.90;;;1.80;;
61204;SDS011;47068;55.780;37.520;2023-06-14T10:32:33;4.55;;;2.10;;
61204;SDS011;47068;55.780;37.520;2023-06-14T10:35:08;3.58;;;1.52;;
61204;SDS011;47068;55.780;37.520;2023-06-14T10:37:34;3.78;;;1.55;;
61204;SDS011;47068;55.780;37.520;2023-06-14T10:40:00;3.17;;;1.63;;
61204;SDS011;47068;55.780;37.520;2023-06-14T10:42:32;6.90;;;2.05;;
61204;SDS011;47068;55.780;37.520;2023-06-14T10:44:58;6.10;;;2.35;;
61204;SDS011;47068;55.780;37.520;2023-06-14T10:49:56;3.55;;;1.60;;
61204;SDS011;47068;55.780;37.520;2023-06-14T10:52:40;3.45;;;1.65;;
61204;SDS011;47068;55.780;37.520;2023-06-14T10:57:36;3.90;;;1.52;;
61204;SDS011;47068;55.780;37.520;2023-06-14T11:00:16;3.58;;;1.80;;
61204;SDS011;47068;55.780;37.520;2023-06-14T11:03:09;3.83;;;2.00;;
61204;SDS011;47068;55.780;37.520;2023-06-14T11:06:01;4.13;;;2.20;;
61204;SDS011;47068;55.780;37.520;2023-06-14T11:09:04;6.03;;;1.85;;
61204;SDS011;47068;55.780;37.520;2023-06-14T11:11:55;6.68;;;1.73;;
61204;SDS011;47068;55.780;37.520;2023-06-14T11:14:22;5.20;;;2.13;;
61204;SDS011;47068;55.780;37.520;2023-06-14T11:16:48;6.72;;;1.88;;
61204;SDS011;47068;55.780;37.520;2023-06-14T11:19:14;5.72;;;2.03;;
61204;SDS011;47068;55.780;37.520;2023-06-14T11:21:42;3.70;;;1.80;;
61204;SDS011;47068;55.780;37.520;2023-06-14T11:24:11;4.70;;;2.15;;
61204;SDS011;47068;55.780;37.520;2023-06-14T11:26:37;5.80;;;2.00;;
61204;SDS011;47068;55.780;37.520;2023-06-14T11:29:03;13.60;;;1.88;;
61204;SDS011;47068;55.780;37.520;2023-06-14T11:31:29;3.70;;;1.88;;
61204;SDS011;47068;55.780;37.520;2023-06-14T11:33:58;4.13;;;1.70;;
61204;SDS011;47068;55.780;37.520;2023-06-14T11:36:28;4.32;;;1.98;;
61204;SDS011;47068;55.780;37.520;2023-06-14T11:38:58;5.30;;;2.00;;
61204;SDS011;47068;55.780;37.520;2023-06-14T11:41:41;6.15;;;1.90;;
61204;SDS011;47068;55.780;37.520;2023-06-14T11:44:09;3.30;;;1.52;;
61204;SDS011;47068;55.780;37.520;2023-06-14T11:46:34;4.60;;;2.03;;
61204;SDS011;47068;55.780;37.520;2023-06-14T11:49:01;3.70;;;1.90;;
61204;SDS011;47068;55.780;37.520;2023-06-14T11:51:32;4.30;;;1.95;;
61204;SDS011;47068;55.780;37.520;2023-06-14T11:53:58;5.95;;;1.90;;
61204;SDS011;47068;55.780;37.520;2023-06-14T11:56:25;3.97;;;1.67;;
61204;SDS011;47068;55.780;37.520;2023-06-14T11:58:52;4.78;;;1.70;;
61204;SDS011;47068;55.780;37.520;2023-06-14T12:01:19;3.55;;;1.48;;
61204;SDS011;47068;55.780;37.520;2023-06-14T12:03:48;7.70;;;1.80;;
61204;SDS011;47068;55.780;37.520;2023-06-14T12:06:16;6.00;;;1.88;;
61204;SDS011;47068;55.780;37.520;2023-06-14T12:08:50;4.32;;;1.60;;
61204;SDS011;47068;55.780;37.520;2023-06-14T12:11:17;5.35;;;1.75;;
61204;SDS011;47068;55.780;37.520;2023-06-14T12:13:43;3.83;;;1.95;;
61204;SDS011;47068;55.780;37.520;2023-06-14T12:16:09;4.63;;;1.83;;
61204;SDS011;47068;55.780;37.520;2023-06-14T12:18:37;4.63;;;1.77;;
61204;SDS011;47068;55.780;37.520;2023-06-14T12:21:07;5.90;;;1.63;;
61204;SDS011;47068;55.780;37.520;2023-06-14T12:23:43;4.25;;;1.65;;
61204;SDS011;47068;55.780;37.520;2023-06-14T12:26:12;3.45;;;1.83;;
61204;SDS011;47068;55.780;37.520;2023-06-14T12:28:40;2.85;;;1.30;;
61204;SDS011;47068;55.780;37.520;2023-06-14T12:31:07;5.25;;;2.10;;
61204;SDS011;47068;55.780;37.520;2023-06-14T12:33:32;5.82;;;1.70;;
61204;SDS011;47068;55.780;37.520;2023-06-14T12:35:58;3.22;;;1.60;;
61204;SDS011;47068;55.780;37.520;2023-06-14T12:38:24;4.88;;;1.80;;
61204;SDS011;47068;55.780;37.520;2023-06-14T12:40:49;3.70;;;1.48;;
61204;SDS011;47068;55.780;37.520;2023-06-14T12:43:15;2.65;;;1.50;;
61204;SDS011;47068;55.780;37.520;2023-06-14T12:45:40;3.30;;;1.50;;
61204;SDS011;47068;55.780;37.520;2023-06-14T12:48:06;4.35;;;1.88;;
61204;SDS011;47068;55.780;37.520;2023-06-14T12:50:33;6.13;;;2.10;;
61204;SDS011;47068;55.780;37.520;2023-06-14T12:52:59;3.08;;;1.50;;
61204;SDS011;47068;55.780;37.520;2023-06-14T12:55:25;4.93;;;1.95;;
61204;SDS011;47068;55.780;37.520;2023-06-14T12:57:50;7.35;;;1.83;;
61204;SDS011;47068;55.780;37.520;2023-06-14T13:00:16;4.85;;;1.27;;
61204;SDS011;47068;55.780;37.520;2023-06-14T13:02:43;6.22;;;1.52;;
61204;SDS011;47068;55.780;37.520;2023-06-14T13:05:09;7.22;;;1.67;;
61204;SDS011;47068;55.780;37.520;2023-06-14T13:07:34;3.70;;;1.65;;
61204;SDS011;47068;55.780;37.520;2023-06-14T13:10:00;4.05;;;1.90;;
61204;SDS011;47068;55.780;37.520;2023-06-14T13:12:25;3.40;;;1.70;;
61204;SDS011;47068;55.780;37.520;2023-06-14T13:14:51;3.20;;;1.67;;
61204;SDS011;47068;55.780;37.520;2023-06-14T13:17:17;5.13;;;1.67;;
61204;SDS011;47068;55.780;37.520;2023-06-14T13:19:42;4.90;;;1.95;;
61204;SDS011;47068;55.780;37.520;2023-06-14T13:22:08;3.83;;;1.58;;
61204;SDS011;47068;55.780;37.520;2023-06-14T13:24:34;6.78;;;1.40;;
61204;SDS011;47068;55.780;37.520;2023-06-14T13:27:00;3.42;;;1.52;;
61204;SDS011;47068;55.780;37.520;2023-06-14T13:29:26;2.47;;;1.13;;
61204;SDS011;47068;55.780;37.520;2023-06-14T13:31:52;4.00;;;1.60;;
61204;SDS011;47068;55.780;37.520;2023-06-14T13:34:18;6.82;;;1.70;;
61204;SDS011;47068;55.780;37.520;2023-06-14T13:36:43;4.13;;;1.38;;
61204;SDS011;47068;55.780;37.520;2023-06-14T13:39:09;4.82;;;1.60;;
61204;SDS011;47068;55.780;37.520;2023-06-14T13:41:36;7.43;;;1.60;;
61204;SDS011;47068;55.780;37.520;2023-06-14T13:44:01;5.05;;;1.65;;
61204;SDS011;47068;55.780;37.520;2023-06-14T13:46:29;4.38;;;1.45;;
61204;SDS011;47068;55.780;37.520;2023-06-14T13:48:55;3.63;;;1.85;;
61204;SDS011;47068;55.780;37.520;2023-06-14T13:51:22;5.55;;;1.40;;
61204;SDS011;47068;55.780;37.520;2023-06-14T13:53:48;4.47;;;1.67;;
61204;SDS011;47068;55.780;37.520;2023-06-14T13:56:15;3.53;;;1.58;;
61204;SDS011;47068;55.780;37.520;2023-06-14T13:58:42;4.07;;;1.55;;
61204;SDS011;47068;55.780;37.520;2023-06-14T14:01:08;4.47;;;1.88;;
61204;SDS011;47068;55.780;37.520;2023-06-14T14:03:34;2.55;;;1.45;;
61204;SDS011;47068;55.780;37.520;2023-06-14T14:06:00;4.07;;;1.65;;
61204;SDS011;47068;55.780;37.520;2023-06-14T14:08:27;3.92;;;1.65;;
61204;SDS011;47068;55.780;37.520;2023-06-14T14:10:53;3.35;;;1.67;;
61204;SDS011;47068;55.780;37.520;2023-06-14T14:13:18;6.28;;;1.85;;
61204;SDS011;47068;55.780;37.520;2023-06-14T14:18:09;3.80;;;1.50;;
61204;SDS011;47068;55.780;37.520;2023-06-14T14:20:35;3.85;;;1.58;;
61204;SDS011;47068;55.780;37.520;2023-06-14T14:23:01;8.43;;;1.50;;
61204;SDS011;47068;55.780;37.520;2023-06-14T14:25:27;5.00;;;1.60;;
61204;SDS011;47068;55.780;37.520;2023-06-14T14:27:52;3.08;;;1.70;;
61204;SDS011;47068;55.780;37.520;2023-06-14T14:30:18;2.92;;;1.48;;
61204;SDS011;47068;55.780;37.520;2023-06-14T14:32:48;5.53;;;1.63;;
61204;SDS011;47068;55.780;37.520;2023-06-14T14:35:16;3.47;;;1.70;;
61204;SDS011;47068;55.780;37.520;2023-06-14T14:37:42;7.43;;;1.63;;
61204;SDS011;47068;55.780;37.520;2023-06-14T14:40:08;3.30;;;1.50;;
61204;SDS011;47068;55.780;37.520;2023-06-14T14:42:35;2.83;;;1.48;;
61204;SDS011;47068;55.780;37.520;2023-06-14T14:45:01;4.10;;;1.60;;
61204;SDS011;47068;55.780;37.520;2023-06-14T14:47:26;6.07;;;1.75;;
61204;SDS011;47068;55.780;37.520;2023-06-14T14:49:52;7.82;;;1.80;;
61204;SDS011;47068;55.780;37.520;2023-06-14T14:54:43;4.00;;;1.58;;
61204;SDS011;47068;55.780;37.520;2023-06-14T14:57:08;2.75;;;1.30;;
61204;SDS011;47068;55.780;37.520;2023-06-14T14:59:35;3.50;;;1.60;;
61204;SDS011;47068;55.780;37.520;2023-06-14T15:02:01;2.55;;;1.33;;
61204;SDS011;47068;55.780;37.520;2023-06-14T15:04:26;3.55;;;1.67;;
61204;SDS011;47068;55.780;37.520;2023-06-14T15:06:52;5.30;;;1.50;;
61204;SDS011;47068;55.780;37.520;2023-06-14T15:11:43;4.78;;;1.52;;
61204;SDS011;47068;55.780;37.520;2023-06-14T15:14:09;4.18;;;1.50;;
61204;SDS011;47068;55.780;37.520;2023-06-14T15:16:35;4.35;;;1.67;;
61204;SDS011;47068;55.780;37.520;2023-06-14T15:19:01;7.13;;;1.70;;
61204;SDS011;47068;55.780;37.520;2023-06-14T15:23:52;4.38;;;1.75;;